WEN3454 CYYC-CYXE
Flight info
| Callsign | WEN3454 |
|---|---|
| Flight time | 1h 6m |
| Altitude | 25000 |
| Route | VETBI Q967 IMOTA DCT MAVOB MAVOB7 |
| Aircraft | DH8D/M-SDE2E3FGRY/H |
Departure
| Time | 2026-04-27 23:39 |
|---|---|
| Airport | Calgary International Airport (CYYC) |
Arrival
| Time | 2026-04-28 00:45 |
|---|---|
| Airport | Saskatoon John G. Diefenbaker International Airport (CYXE) |
| Time | Latitude | Longitude | Altitude | Speed | Heading |
|---|---|---|---|---|---|
| 2026-04-27 23:05 | 51.13489 | -114.01289 | 3557 ft | 0 kts | 90° |
| 2026-04-27 23:30 | 51.13489 | -114.01299 | 3557 ft | 2 kts | 90° |
| 2026-04-27 23:30 | 51.13489 | -114.01322 | 3556 ft | 2 kts | 90° |
| 2026-04-27 23:31 | 51.13491 | -114.01346 | 3556 ft | 2 kts | 117° |
| 2026-04-27 23:31 | 51.13501 | -114.01363 | 3556 ft | 2 kts | 151° |
| 2026-04-27 23:31 | 51.13513 | -114.01368 | 3556 ft | 0 kts | 181° |
| 2026-04-27 23:31 | 51.13515 | -114.01368 | 3556 ft | 0 kts | 182° |
| 2026-04-27 23:35 | 51.13504 | -114.01369 | 3556 ft | 3 kts | 181° |
| 2026-04-27 23:36 | 51.13456 | -114.01370 | 3556 ft | 6 kts | 181° |
| 2026-04-27 23:36 | 51.13425 | -114.01421 | 3555 ft | 11 kts | 267° |
| 2026-04-27 23:36 | 51.13419 | -114.01582 | 3553 ft | 15 kts | 239° |
| 2026-04-27 23:36 | 51.13374 | -114.01717 | 3552 ft | 12 kts | 243° |
| 2026-04-27 23:37 | 51.13339 | -114.01820 | 3551 ft | 8 kts | 240° |
| 2026-04-27 23:37 | 51.13298 | -114.01853 | 3552 ft | 5 kts | 183° |
| 2026-04-27 23:37 | 51.13242 | -114.01855 | 3552 ft | 9 kts | 178° |
| 2026-04-27 23:37 | 51.13163 | -114.01857 | 3553 ft | 12 kts | 181° |
| 2026-04-27 23:38 | 51.13097 | -114.01927 | 3553 ft | 16 kts | 270° |
| 2026-04-27 23:38 | 51.13083 | -114.02120 | 3553 ft | 16 kts | 218° |
| 2026-04-27 23:38 | 51.12971 | -114.02135 | 3553 ft | 25 kts | 180° |
| 2026-04-27 23:38 | 51.12498 | -114.02134 | 3554 ft | 109 kts | 180° |
| 2026-04-27 23:39 | 51.11571 | -114.02155 | 3695 ft | 147 kts | 180° |
| 2026-04-27 23:39 | 51.10561 | -114.02245 | 4339 ft | 151 kts | 182° |
| 2026-04-27 23:39 | 51.09494 | -114.02351 | 5000 ft | 156 kts | 186° |
| 2026-04-27 23:39 | 51.08431 | -114.02412 | 5475 ft | 150 kts | 179° |
| 2026-04-27 23:40 | 51.07363 | -114.02432 | 5510 ft | 155 kts | 180° |
| 2026-04-27 23:40 | 51.06228 | -114.02470 | 5805 ft | 167 kts | 181° |
| 2026-04-27 23:40 | 51.05117 | -114.02609 | 6497 ft | 160 kts | 182° |
| 2026-04-27 23:40 | 51.03962 | -114.02623 | 6823 ft | 179 kts | 169° |
| 2026-04-27 23:41 | 51.02775 | -114.01704 | 7025 ft | 200 kts | 136° |
| 2026-04-27 23:41 | 51.02161 | -113.99721 | 7436 ft | 213 kts | 96° |
| 2026-04-27 23:41 | 51.02511 | -113.97378 | 7559 ft | 236 kts | 66° |
| 2026-04-27 23:41 | 51.03239 | -113.94938 | 7917 ft | 247 kts | 64° |
| 2026-04-27 23:42 | 51.04004 | -113.92501 | 8433 ft | 253 kts | 63° |
| 2026-04-27 23:42 | 51.04802 | -113.89944 | 8722 ft | 266 kts | 62° |
| 2026-04-27 23:42 | 51.05662 | -113.87303 | 9109 ft | 273 kts | 61° |
| 2026-04-27 23:42 | 51.06522 | -113.84617 | 9601 ft | 275 kts | 61° |
| 2026-04-27 23:43 | 51.07378 | -113.81887 | 10023 ft | 280 kts | 60° |
| 2026-04-27 23:43 | 51.08257 | -113.79163 | 10584 ft | 279 kts | 60° |
| 2026-04-27 23:43 | 51.09146 | -113.76441 | 11054 ft | 277 kts | 60° |
| 2026-04-27 23:43 | 51.10042 | -113.73701 | 11264 ft | 282 kts | 60° |
| 2026-04-27 23:44 | 51.10947 | -113.70930 | 11558 ft | 283 kts | 60° |
| 2026-04-27 23:44 | 51.11852 | -113.68153 | 11841 ft | 283 kts | 60° |
| 2026-04-27 23:44 | 51.12748 | -113.65399 | 12153 ft | 284 kts | 60° |
| 2026-04-27 23:44 | 51.13663 | -113.62582 | 12452 ft | 285 kts | 60° |
| 2026-04-27 23:45 | 51.14555 | -113.59830 | 13079 ft | 272 kts | 60° |
| 2026-04-27 23:45 | 51.15393 | -113.57234 | 13632 ft | 267 kts | 60° |
| 2026-04-27 23:45 | 51.16240 | -113.54617 | 14090 ft | 266 kts | 60° |
| 2026-04-27 23:45 | 51.17088 | -113.51995 | 14493 ft | 267 kts | 60° |
| 2026-04-27 23:46 | 51.17945 | -113.49341 | 14890 ft | 269 kts | 60° |
| 2026-04-27 23:46 | 51.18803 | -113.46679 | 15298 ft | 270 kts | 60° |
| 2026-04-27 23:46 | 51.19646 | -113.44049 | 15692 ft | 272 kts | 61° |
| 2026-04-27 23:46 | 51.20113 | -113.41135 | 16053 ft | 278 kts | 87° |
| 2026-04-27 23:47 | 51.19947 | -113.38050 | 16462 ft | 280 kts | 94° |
| 2026-04-27 23:47 | 51.19723 | -113.34951 | 16860 ft | 282 kts | 94° |
| 2026-04-27 23:47 | 51.19495 | -113.31844 | 17249 ft | 284 kts | 94° |
| 2026-04-27 23:47 | 51.19265 | -113.28701 | 17641 ft | 286 kts | 94° |
| 2026-04-27 23:48 | 51.19035 | -113.25532 | 18021 ft | 287 kts | 94° |
| 2026-04-27 23:48 | 51.18806 | -113.22373 | 18399 ft | 289 kts | 94° |
| 2026-04-27 23:48 | 51.18578 | -113.19196 | 18773 ft | 290 kts | 94° |
| 2026-04-27 23:48 | 51.18353 | -113.16020 | 19132 ft | 292 kts | 94° |
| 2026-04-27 23:49 | 51.18127 | -113.12820 | 19484 ft | 293 kts | 94° |
| 2026-04-27 23:49 | 51.17900 | -113.09613 | 19818 ft | 294 kts | 94° |
| 2026-04-27 23:49 | 51.17671 | -113.06381 | 20150 ft | 295 kts | 93° |
| 2026-04-27 23:49 | 51.17437 | -113.03101 | 20459 ft | 297 kts | 93° |
| 2026-04-27 23:50 | 51.17205 | -112.99851 | 20773 ft | 298 kts | 93° |
| 2026-04-27 23:50 | 51.16969 | -112.96558 | 21060 ft | 299 kts | 93° |
| 2026-04-27 23:50 | 51.16734 | -112.93292 | 21330 ft | 300 kts | 93° |
| 2026-04-27 23:50 | 51.16496 | -112.89996 | 21591 ft | 302 kts | 93° |
| 2026-04-27 23:51 | 51.16254 | -112.86662 | 21859 ft | 303 kts | 92° |
| 2026-04-27 23:51 | 51.16009 | -112.83305 | 22106 ft | 303 kts | 92° |
| 2026-04-27 23:51 | 51.15766 | -112.79980 | 22322 ft | 305 kts | 92° |
| 2026-04-27 23:51 | 51.15520 | -112.76621 | 22561 ft | 305 kts | 92° |
| 2026-04-27 23:52 | 51.15270 | -112.73238 | 22771 ft | 307 kts | 92° |
| 2026-04-27 23:52 | 51.15021 | -112.69863 | 23000 ft | 307 kts | 92° |
| 2026-04-27 23:52 | 51.14771 | -112.66495 | 23182 ft | 308 kts | 92° |
| 2026-04-27 23:52 | 51.14516 | -112.63092 | 23383 ft | 309 kts | 92° |
| 2026-04-27 23:53 | 51.14261 | -112.59686 | 23562 ft | 310 kts | 92° |
| 2026-04-27 23:53 | 51.14006 | -112.56295 | 23762 ft | 310 kts | 92° |
| 2026-04-27 23:53 | 51.13743 | -112.52816 | 23930 ft | 312 kts | 92° |
| 2026-04-27 23:53 | 51.13484 | -112.49397 | 24087 ft | 312 kts | 92° |
| 2026-04-27 23:54 | 51.13220 | -112.45934 | 24243 ft | 313 kts | 92° |
| 2026-04-27 23:54 | 51.12957 | -112.42484 | 24397 ft | 314 kts | 92° |
| 2026-04-27 23:54 | 51.12692 | -112.39045 | 24541 ft | 315 kts | 92° |
| 2026-04-27 23:54 | 51.12425 | -112.35564 | 24661 ft | 316 kts | 92° |
| 2026-04-27 23:55 | 51.12221 | -112.32941 | 24772 ft | 315 kts | 93° |
| 2026-04-27 23:55 | 51.12020 | -112.30364 | 24817 ft | 316 kts | 93° |
| 2026-04-27 23:55 | 51.11706 | -112.26345 | 24821 ft | 317 kts | 93° |
| 2026-04-27 23:55 | 51.11380 | -112.22173 | 24912 ft | 318 kts | 92° |
| 2026-04-27 23:56 | 51.11107 | -112.18684 | 25026 ft | 318 kts | 93° |
| 2026-04-27 23:56 | 51.10834 | -112.15209 | 25074 ft | 318 kts | 92° |
| 2026-04-27 23:56 | 51.10560 | -112.11732 | 25072 ft | 318 kts | 92° |
| 2026-04-27 23:56 | 51.10281 | -112.08212 | 25051 ft | 318 kts | 93° |
| 2026-04-27 23:57 | 51.10002 | -112.04701 | 25019 ft | 319 kts | 93° |
| 2026-04-27 23:57 | 51.09722 | -112.01200 | 24989 ft | 319 kts | 93° |
| 2026-04-27 23:57 | 51.09443 | -111.97723 | 24956 ft | 318 kts | 93° |
| 2026-04-27 23:57 | 51.09183 | -111.94217 | 24919 ft | 317 kts | 89° |
| 2026-04-27 23:58 | 51.09472 | -111.90817 | 24841 ft | 307 kts | 68° |
| 2026-04-27 23:58 | 51.10191 | -111.87631 | 24821 ft | 306 kts | 65° |
| 2026-04-27 23:58 | 51.10920 | -111.84487 | 24901 ft | 302 kts | 66° |
| 2026-04-27 23:58 | 51.11647 | -111.81354 | 25011 ft | 298 kts | 65° |
| 2026-04-27 23:59 | 51.12355 | -111.78295 | 25048 ft | 298 kts | 65° |
| 2026-04-27 23:59 | 51.13079 | -111.75161 | 25059 ft | 300 kts | 65° |
| 2026-04-27 23:59 | 51.13795 | -111.72051 | 25065 ft | 302 kts | 65° |
| 2026-04-27 23:59 | 51.14517 | -111.68911 | 25063 ft | 303 kts | 66° |
| 2026-04-28 00:00 | 51.15248 | -111.65721 | 25065 ft | 305 kts | 65° |
| 2026-04-28 00:00 | 51.15966 | -111.62579 | 25064 ft | 306 kts | 66° |
| 2026-04-28 00:00 | 51.16695 | -111.59383 | 25065 ft | 308 kts | 66° |
| 2026-04-28 00:00 | 51.17429 | -111.56160 | 25063 ft | 309 kts | 66° |
| 2026-04-28 00:01 | 51.18162 | -111.52934 | 25064 ft | 310 kts | 66° |
| 2026-04-28 00:01 | 51.18890 | -111.49727 | 25064 ft | 310 kts | 66° |
| 2026-04-28 00:01 | 51.19617 | -111.46516 | 25063 ft | 311 kts | 66° |
| 2026-04-28 00:01 | 51.20354 | -111.43256 | 25062 ft | 312 kts | 66° |
| 2026-04-28 00:02 | 51.21090 | -111.39996 | 25060 ft | 312 kts | 66° |
| 2026-04-28 00:02 | 51.21829 | -111.36716 | 25057 ft | 313 kts | 66° |
| 2026-04-28 00:02 | 51.22480 | -111.33823 | 25058 ft | 313 kts | 66° |
| 2026-04-28 00:02 | 51.23152 | -111.30833 | 25062 ft | 311 kts | 66° |
| 2026-04-28 00:03 | 51.24569 | -111.24510 | 25058 ft | 308 kts | 66° |
| 2026-04-28 00:03 | 51.25298 | -111.21253 | 25058 ft | 310 kts | 66° |
| 2026-04-28 00:03 | 51.26017 | -111.18036 | 25055 ft | 311 kts | 66° |
| 2026-04-28 00:04 | 51.26751 | -111.14746 | 25056 ft | 311 kts | 66° |
| 2026-04-28 00:04 | 51.28202 | -111.08225 | 25060 ft | 313 kts | 66° |
| 2026-04-28 00:04 | 51.28923 | -111.04974 | 25056 ft | 313 kts | 66° |
| 2026-04-28 00:05 | 51.29657 | -111.01666 | 25056 ft | 314 kts | 66° |
| 2026-04-28 00:05 | 51.30391 | -110.98350 | 25055 ft | 314 kts | 66° |
| 2026-04-28 00:05 | 51.31113 | -110.95078 | 25055 ft | 315 kts | 66° |
| 2026-04-28 00:05 | 51.31845 | -110.91761 | 25054 ft | 315 kts | 66° |
| 2026-04-28 00:06 | 51.32570 | -110.88467 | 25054 ft | 315 kts | 66° |
| 2026-04-28 00:06 | 51.33304 | -110.85128 | 25059 ft | 315 kts | 66° |
| 2026-04-28 00:06 | 51.34025 | -110.81844 | 25059 ft | 316 kts | 66° |
| 2026-04-28 00:06 | 51.34757 | -110.78504 | 25062 ft | 316 kts | 66° |
| 2026-04-28 00:07 | 51.35482 | -110.75194 | 25063 ft | 316 kts | 66° |
| 2026-04-28 00:07 | 51.36211 | -110.71854 | 25062 ft | 317 kts | 66° |
| 2026-04-28 00:07 | 51.36938 | -110.68520 | 25065 ft | 317 kts | 66° |
| 2026-04-28 00:07 | 51.37666 | -110.65176 | 25069 ft | 318 kts | 67° |
| 2026-04-28 00:08 | 51.38398 | -110.61812 | 25068 ft | 318 kts | 67° |
| 2026-04-28 00:08 | 51.39121 | -110.58480 | 25070 ft | 318 kts | 67° |
| 2026-04-28 00:08 | 51.39846 | -110.55133 | 25069 ft | 318 kts | 67° |
| 2026-04-28 00:08 | 51.40570 | -110.51791 | 25069 ft | 319 kts | 67° |
| 2026-04-28 00:09 | 51.41298 | -110.48420 | 25071 ft | 319 kts | 67° |
| 2026-04-28 00:09 | 51.42027 | -110.45036 | 25065 ft | 319 kts | 67° |
| 2026-04-28 00:09 | 51.42754 | -110.41657 | 25071 ft | 319 kts | 67° |
| 2026-04-28 00:09 | 51.43473 | -110.38316 | 25073 ft | 319 kts | 67° |
| 2026-04-28 00:10 | 51.44194 | -110.34957 | 25072 ft | 320 kts | 68° |
| 2026-04-28 00:10 | 51.44788 | -110.32179 | 25073 ft | 318 kts | 68° |
| 2026-04-28 00:10 | 51.46366 | -110.24789 | 25074 ft | 313 kts | 68° |
| 2026-04-28 00:11 | 51.47072 | -110.21481 | 25078 ft | 314 kts | 68° |
| 2026-04-28 00:11 | 51.47775 | -110.18182 | 25081 ft | 315 kts | 68° |
| 2026-04-28 00:11 | 51.48488 | -110.14829 | 25080 ft | 316 kts | 68° |
| 2026-04-28 00:11 | 51.49204 | -110.11456 | 25083 ft | 317 kts | 68° |
| 2026-04-28 00:12 | 51.49919 | -110.08077 | 25082 ft | 318 kts | 68° |
| 2026-04-28 00:12 | 51.50625 | -110.04739 | 25086 ft | 319 kts | 68° |
| 2026-04-28 00:12 | 51.51345 | -110.01325 | 25085 ft | 320 kts | 68° |
| 2026-04-28 00:12 | 51.52054 | -109.97964 | 25085 ft | 320 kts | 68° |
| 2026-04-28 00:13 | 51.52768 | -109.94559 | 25084 ft | 321 kts | 68° |
| 2026-04-28 00:13 | 51.53478 | -109.91175 | 25084 ft | 321 kts | 68° |
| 2026-04-28 00:13 | 51.54190 | -109.87773 | 25086 ft | 322 kts | 68° |
| 2026-04-28 00:13 | 51.54894 | -109.84405 | 25084 ft | 322 kts | 68° |
| 2026-04-28 00:14 | 51.55603 | -109.81007 | 25086 ft | 322 kts | 68° |
| 2026-04-28 00:14 | 51.56316 | -109.77583 | 25085 ft | 323 kts | 68° |
| 2026-04-28 00:14 | 51.57027 | -109.74165 | 25084 ft | 323 kts | 68° |
| 2026-04-28 00:14 | 51.57740 | -109.70732 | 25088 ft | 323 kts | 68° |
| 2026-04-28 00:15 | 51.58443 | -109.67335 | 25089 ft | 323 kts | 68° |
| 2026-04-28 00:15 | 51.59152 | -109.63911 | 25089 ft | 324 kts | 68° |
| 2026-04-28 00:15 | 51.59864 | -109.60463 | 25089 ft | 323 kts | 68° |
| 2026-04-28 00:15 | 51.60566 | -109.57055 | 25090 ft | 322 kts | 68° |
| 2026-04-28 00:16 | 51.61276 | -109.53608 | 25089 ft | 322 kts | 68° |
| 2026-04-28 00:16 | 51.61967 | -109.50244 | 25090 ft | 321 kts | 68° |
| 2026-04-28 00:16 | 51.62667 | -109.46829 | 25091 ft | 321 kts | 68° |
| 2026-04-28 00:16 | 51.63363 | -109.43433 | 25094 ft | 320 kts | 68° |
| 2026-04-28 00:17 | 51.64065 | -109.39997 | 25096 ft | 320 kts | 68° |
| 2026-04-28 00:17 | 51.64751 | -109.36634 | 25098 ft | 320 kts | 68° |
| 2026-04-28 00:17 | 51.65419 | -109.33356 | 25095 ft | 319 kts | 69° |
| 2026-04-28 00:17 | 51.66101 | -109.30007 | 25098 ft | 317 kts | 69° |
| 2026-04-28 00:18 | 51.66777 | -109.26673 | 25102 ft | 316 kts | 69° |
| 2026-04-28 00:18 | 51.67456 | -109.23319 | 25104 ft | 316 kts | 69° |
| 2026-04-28 00:18 | 51.68141 | -109.19935 | 25107 ft | 317 kts | 69° |
| 2026-04-28 00:18 | 51.68824 | -109.16554 | 25107 ft | 317 kts | 69° |
| 2026-04-28 00:19 | 51.69506 | -109.13175 | 25105 ft | 317 kts | 69° |
| 2026-04-28 00:19 | 51.70182 | -109.09815 | 25101 ft | 317 kts | 69° |
| 2026-04-28 00:19 | 51.70869 | -109.06399 | 25098 ft | 318 kts | 69° |
| 2026-04-28 00:19 | 51.71548 | -109.03011 | 25096 ft | 318 kts | 69° |
| 2026-04-28 00:20 | 51.72230 | -108.99603 | 25094 ft | 318 kts | 69° |
| 2026-04-28 00:20 | 51.72907 | -108.96220 | 25094 ft | 318 kts | 69° |
| 2026-04-28 00:20 | 51.73581 | -108.92843 | 25095 ft | 318 kts | 69° |
| 2026-04-28 00:20 | 51.74263 | -108.89421 | 25095 ft | 318 kts | 69° |
| 2026-04-28 00:21 | 51.74932 | -108.86054 | 25095 ft | 319 kts | 69° |
| 2026-04-28 00:21 | 51.75606 | -108.82657 | 25100 ft | 319 kts | 69° |
| 2026-04-28 00:21 | 51.76283 | -108.79244 | 25101 ft | 319 kts | 69° |
| 2026-04-28 00:21 | 51.76959 | -108.75826 | 25101 ft | 319 kts | 69° |
| 2026-04-28 00:22 | 51.77629 | -108.72431 | 25101 ft | 319 kts | 69° |
| 2026-04-28 00:22 | 51.78309 | -108.68984 | 25102 ft | 319 kts | 69° |
| 2026-04-28 00:22 | 51.78984 | -108.65550 | 25103 ft | 319 kts | 69° |
| 2026-04-28 00:22 | 51.79655 | -108.62137 | 25107 ft | 319 kts | 69° |
| 2026-04-28 00:23 | 51.80325 | -108.58720 | 25107 ft | 320 kts | 69° |
| 2026-04-28 00:23 | 51.80998 | -108.55280 | 25108 ft | 320 kts | 69° |
| 2026-04-28 00:23 | 51.81663 | -108.51872 | 25109 ft | 320 kts | 69° |
| 2026-04-28 00:23 | 51.82330 | -108.48457 | 25109 ft | 320 kts | 69° |
| 2026-04-28 00:24 | 51.82999 | -108.45019 | 25106 ft | 321 kts | 69° |
| 2026-04-28 00:24 | 51.83670 | -108.41567 | 25105 ft | 321 kts | 69° |
| 2026-04-28 00:24 | 51.84339 | -108.38117 | 25106 ft | 321 kts | 69° |
| 2026-04-28 00:24 | 51.85002 | -108.34695 | 25103 ft | 321 kts | 70° |
| 2026-04-28 00:25 | 51.85675 | -108.31213 | 25104 ft | 321 kts | 70° |
| 2026-04-28 00:25 | 51.86333 | -108.27799 | 25105 ft | 319 kts | 70° |
| 2026-04-28 00:25 | 51.86988 | -108.24397 | 25103 ft | 320 kts | 70° |
| 2026-04-28 00:25 | 51.87651 | -108.20946 | 25103 ft | 320 kts | 70° |
| 2026-04-28 00:26 | 51.88312 | -108.17506 | 25104 ft | 320 kts | 70° |
| 2026-04-28 00:26 | 51.88967 | -108.14084 | 25106 ft | 321 kts | 70° |
| 2026-04-28 00:26 | 51.89628 | -108.10627 | 25110 ft | 321 kts | 70° |
| 2026-04-28 00:26 | 51.90280 | -108.07208 | 25111 ft | 321 kts | 70° |
| 2026-04-28 00:27 | 51.90943 | -108.03728 | 25113 ft | 322 kts | 70° |
| 2026-04-28 00:27 | 51.91598 | -108.00281 | 25114 ft | 322 kts | 70° |
| 2026-04-28 00:27 | 51.92258 | -107.96813 | 25115 ft | 322 kts | 70° |
| 2026-04-28 00:27 | 51.92918 | -107.93336 | 25116 ft | 322 kts | 70° |
| 2026-04-28 00:28 | 51.93571 | -107.89897 | 25118 ft | 323 kts | 70° |
| 2026-04-28 00:28 | 51.94231 | -107.86411 | 25119 ft | 323 kts | 70° |
| 2026-04-28 00:28 | 51.94883 | -107.82959 | 25115 ft | 323 kts | 70° |
| 2026-04-28 00:28 | 51.95543 | -107.79462 | 25118 ft | 324 kts | 71° |
| 2026-04-28 00:29 | 51.96199 | -107.75973 | 25118 ft | 324 kts | 70° |
| 2026-04-28 00:29 | 51.96853 | -107.72497 | 25119 ft | 324 kts | 70° |
| 2026-04-28 00:29 | 51.97510 | -107.68991 | 25032 ft | 328 kts | 71° |
| 2026-04-28 00:29 | 51.98170 | -107.65482 | 24535 ft | 329 kts | 70° |
| 2026-04-28 00:30 | 51.98837 | -107.61948 | 23910 ft | 327 kts | 71° |
| 2026-04-28 00:30 | 51.99495 | -107.58438 | 23261 ft | 325 kts | 71° |
| 2026-04-28 00:30 | 52.00146 | -107.54957 | 22611 ft | 323 kts | 71° |
| 2026-04-28 00:30 | 52.00791 | -107.51493 | 21966 ft | 321 kts | 71° |
| 2026-04-28 00:31 | 52.01426 | -107.48066 | 21322 ft | 319 kts | 71° |
| 2026-04-28 00:31 | 52.01857 | -107.44541 | 20682 ft | 318 kts | 81° |
| 2026-04-28 00:31 | 52.02084 | -107.41016 | 20043 ft | 316 kts | 82° |
| 2026-04-28 00:31 | 52.02295 | -107.37508 | 19407 ft | 314 kts | 82° |
| 2026-04-28 00:32 | 52.02507 | -107.33979 | 18777 ft | 311 kts | 83° |
| 2026-04-28 00:32 | 52.02691 | -107.30905 | 18229 ft | 308 kts | 83° |
| 2026-04-28 00:32 | 52.02916 | -107.27176 | 17553 ft | 305 kts | 83° |
| 2026-04-28 00:32 | 52.03124 | -107.23756 | 16852 ft | 304 kts | 83° |
| 2026-04-28 00:33 | 52.03328 | -107.20398 | 16225 ft | 302 kts | 83° |
| 2026-04-28 00:33 | 52.03531 | -107.17044 | 15615 ft | 298 kts | 82° |
| 2026-04-28 00:33 | 52.03732 | -107.13706 | 15013 ft | 294 kts | 82° |
| 2026-04-28 00:33 | 52.03928 | -107.10441 | 14423 ft | 291 kts | 82° |
| 2026-04-28 00:34 | 52.04121 | -107.07231 | 13844 ft | 287 kts | 82° |
| 2026-04-28 00:34 | 52.04311 | -107.04044 | 13266 ft | 283 kts | 82° |
| 2026-04-28 00:34 | 52.04500 | -107.00884 | 12705 ft | 279 kts | 82° |
| 2026-04-28 00:34 | 52.04684 | -106.97791 | 12156 ft | 275 kts | 82° |
| 2026-04-28 00:35 | 52.04865 | -106.94719 | 11604 ft | 271 kts | 83° |
| 2026-04-28 00:35 | 52.05042 | -106.91719 | 11062 ft | 268 kts | 83° |
| 2026-04-28 00:35 | 52.05217 | -106.88737 | 10524 ft | 264 kts | 83° |
| 2026-04-28 00:35 | 52.05391 | -106.85780 | 10001 ft | 261 kts | 83° |
| 2026-04-28 00:36 | 52.05558 | -106.82894 | 9489 ft | 257 kts | 83° |
| 2026-04-28 00:36 | 52.05725 | -106.80015 | 8985 ft | 254 kts | 83° |
| 2026-04-28 00:36 | 52.05888 | -106.77212 | 8488 ft | 252 kts | 83° |
| 2026-04-28 00:36 | 52.06050 | -106.74388 | 7970 ft | 249 kts | 83° |
| 2026-04-28 00:37 | 52.06208 | -106.71626 | 7477 ft | 246 kts | 83° |
| 2026-04-28 00:37 | 52.06365 | -106.68874 | 6984 ft | 243 kts | 83° |
| 2026-04-28 00:37 | 52.06519 | -106.66164 | 6507 ft | 240 kts | 83° |
| 2026-04-28 00:37 | 52.06614 | -106.63518 | 6203 ft | 229 kts | 89° |
| 2026-04-28 00:38 | 52.06551 | -106.61000 | 6189 ft | 222 kts | 92° |
| 2026-04-28 00:38 | 52.06471 | -106.58488 | 6169 ft | 220 kts | 91° |
| 2026-04-28 00:38 | 52.06395 | -106.56014 | 6130 ft | 218 kts | 91° |
| 2026-04-28 00:38 | 52.06325 | -106.53619 | 5897 ft | 214 kts | 91° |
| 2026-04-28 00:39 | 52.06251 | -106.51165 | 5648 ft | 218 kts | 91° |
| 2026-04-28 00:39 | 52.06179 | -106.48719 | 5397 ft | 217 kts | 91° |
| 2026-04-28 00:39 | 52.06129 | -106.46323 | 5268 ft | 208 kts | 86° |
| 2026-04-28 00:39 | 52.06627 | -106.44229 | 5143 ft | 199 kts | 42° |
| 2026-04-28 00:40 | 52.07829 | -106.43277 | 5077 ft | 195 kts | 11° |
| 2026-04-28 00:40 | 52.09179 | -106.42847 | 5016 ft | 198 kts | 7° |
| 2026-04-28 00:40 | 52.10549 | -106.42511 | 4949 ft | 201 kts | 5° |
| 2026-04-28 00:40 | 52.11955 | -106.42230 | 4875 ft | 203 kts | 4° |
| 2026-04-28 00:41 | 52.13281 | -106.42303 | 4743 ft | 181 kts | 335° |
| 2026-04-28 00:41 | 52.14081 | -106.43680 | 4618 ft | 170 kts | 290° |
| 2026-04-28 00:41 | 52.14435 | -106.45552 | 4494 ft | 176 kts | 285° |
| 2026-04-28 00:41 | 52.14745 | -106.47501 | 4264 ft | 182 kts | 283° |
| 2026-04-28 00:42 | 52.15030 | -106.49473 | 3995 ft | 173 kts | 282° |
| 2026-04-28 00:42 | 52.15284 | -106.51320 | 3754 ft | 163 kts | 282° |
| 2026-04-28 00:42 | 52.15525 | -106.53093 | 3543 ft | 162 kts | 282° |
| 2026-04-28 00:42 | 52.15765 | -106.54896 | 3326 ft | 164 kts | 281° |
| 2026-04-28 00:43 | 52.15998 | -106.56694 | 3118 ft | 158 kts | 281° |
| 2026-04-28 00:43 | 52.16216 | -106.58415 | 2885 ft | 149 kts | 280° |
| 2026-04-28 00:43 | 52.16415 | -106.60003 | 2688 ft | 140 kts | 280° |
| 2026-04-28 00:43 | 52.16604 | -106.61516 | 2494 ft | 137 kts | 280° |
| 2026-04-28 00:44 | 52.16792 | -106.63026 | 2308 ft | 134 kts | 279° |
| 2026-04-28 00:44 | 52.16976 | -106.64511 | 2137 ft | 133 kts | 280° |
| 2026-04-28 00:44 | 52.17156 | -106.65997 | 1961 ft | 134 kts | 279° |
| 2026-04-28 00:44 | 52.17336 | -106.67496 | 1772 ft | 135 kts | 279° |
| 2026-04-28 00:45 | 52.17508 | -106.68946 | 1650 ft | 112 kts | 282° |
| 2026-04-28 00:45 | 52.17601 | -106.69696 | 1651 ft | 22 kts | 280° |
| 2026-04-28 00:45 | 52.17607 | -106.69821 | 1651 ft | 7 kts | 244° |
| 2026-04-28 00:45 | 52.17566 | -106.69836 | 1651 ft | 6 kts | 161° |
| 2026-04-28 00:46 | 52.17525 | -106.69813 | 1651 ft | 6 kts | 161° |
| 2026-04-28 00:46 | 52.17463 | -106.69780 | 1652 ft | 18 kts | 162° |
| 2026-04-28 00:46 | 52.17334 | -106.69707 | 1652 ft | 16 kts | 161° |
| 2026-04-28 00:46 | 52.17266 | -106.69615 | 1652 ft | 16 kts | 104° |
| 2026-04-28 00:47 | 52.17239 | -106.69389 | 1652 ft | 21 kts | 101° |
| 2026-04-28 00:47 | 52.17215 | -106.69185 | 1651 ft | 12 kts | 101° |
| 2026-04-28 00:47 | 52.17185 | -106.69094 | 1651 ft | 8 kts | 176° |
| 2026-04-28 00:47 | 52.17141 | -106.69130 | 1651 ft | 5 kts | 194° |
| 2026-04-28 00:48 | 52.17109 | -106.69110 | 1651 ft | 5 kts | 150° |
| 2026-04-28 00:48 | 52.17081 | -106.69085 | 1651 ft | 3 kts | 150° |
| 2026-04-28 00:48 | 52.17075 | -106.69079 | 1651 ft | 0 kts | 151° |